Time;durP1;ratioP1;P1;durP2;ratioP2;P2;SDS_P1;SDS_P2;PMS_P1;PMS_P2;Temp;Humidity;BMP_temperature;BMP_pressure;BME280_temperature;BME280_humidity;BME280_pressure;Samples;Min_cycle;Max_cycle;Signal;HPM_P1;HPM_P2
2022/11/02 00:01:45;;;;;;;17.75;10.77;;;;;;;13.04;66.93;100306.13;7711470;32;39404;-81
2022/11/02 00:06:01;;;;;;;21.83;11.10;;;;;;;12.87;67.82;100301.78;7711370;32;40799;-80
2022/11/02 00:10:18;;;;;;;19.62;9.95;;;;;;;13.12;66.81;100303.69;7711308;32;37984;-81
2022/11/02 00:14:34;;;;;;;19.98;10.63;;;;;;;13.19;66.20;100314.31;7711426;32;37111;-79
2022/11/02 00:18:54;;;;;;;22.65;11.35;;;;;;;13.14;66.82;100328.84;7723056;32;39469;-81
2022/11/02 00:23:12;;;;;;;24.63;11.60;;;;;;;12.71;68.73;100314.66;7710140;32;40007;-81
2022/11/02 00:27:28;;;;;;;23.83;11.30;;;;;;;12.64;68.74;100319.56;7711084;32;37973;-80
2022/11/02 00:31:44;;;;;;;29.02;11.20;;;;;;;13.09;67.43;100314.34;7710004;32;37172;-82
2022/11/02 00:36:01;;;;;;;23.40;12.15;;;;;;;13.37;66.38;100302.00;7951407;27;39414;-76
2022/11/02 00:40:17;;;;;;;25.10;12.57;;;;;;;13.29;66.53;100305.28;7724092;32;39862;-77
2022/11/02 00:44:33;;;;;;;24.05;11.23;;;;;;;13.02;67.47;100309.16;7735958;32;37995;-76
2022/11/02 00:48:49;;;;;;;22.52;10.40;;;;;;;13.17;66.80;100310.22;7737201;32;37683;-76
2022/11/02 00:53:05;;;;;;;26.83;12.20;;;;;;;13.39;65.99;100302.53;7737807;32;39982;-77
2022/11/02 00:57:22;;;;;;;20.42;10.80;;;;;;;13.28;66.50;100315.41;7737691;32;39976;-77
2022/11/02 01:01:38;;;;;;;21.85;11.70;;;;;;;13.57;65.65;100311.25;7736346;32;39020;-77
2022/11/02 01:05:54;;;;;;;22.45;11.57;;;;;;;13.33;66.42;100309.97;7737417;32;37976;-77
2022/11/02 01:10:11;;;;;;;25.12;12.52;;;;;;;13.22;66.85;100313.78;7737479;32;40126;-77
2022/11/02 01:14:27;;;;;;;20.90;11.18;;;;;;;12.92;68.06;100309.19;7736743;32;40977;-77
2022/11/02 01:18:43;;;;;;;24.37;12.88;;;;;;;13.23;67.35;100303.62;7710441;32;39237;-77
2022/11/02 01:22:59;;;;;;;23.38;13.38;;;;;;;13.18;67.61;100296.28;7711648;32;37190;-77
2022/11/02 01:27:15;;;;;;;23.52;11.70;;;;;;;13.15;67.49;100303.09;7736557;32;39102;-77
2022/11/02 01:31:32;;;;;;;21.55;11.80;;;;;;;13.35;66.59;100306.94;7716236;32;40592;-76
2022/11/02 01:35:48;;;;;;;24.90;12.70;;;;;;;13.51;66.08;100305.78;7709850;32;38187;-77
2022/11/02 01:40:04;;;;;;;24.50;12.55;;;;;;;13.36;66.78;100297.63;7709923;32;38264;-77
2022/11/02 01:44:31;;;;;;;23.15;12.13;;;;;;;13.28;67.06;100279.81;7709808;32;39301;-76
2022/11/02 01:49:15;;;;;;;27.50;12.80;;;;;;;13.69;65.64;100292.56;7709730;32;39922;-76
2022/11/02 01:53:34;;;;;;;22.13;13.02;;;;;;;13.45;66.26;100287.75;7708606;32;38067;-77
2022/11/02 01:57:58;;;;;;;21.45;11.98;;;;;;;12.94;68.24;100290.56;7708392;32;37261;-78
2022/11/02 02:02:19;;;;;;;;;;;;;;;13.52;66.21;100288.28;7709773;32;39465;-76
2022/11/02 02:06:36;;;;;;;24.37;13.13;;;;;;;13.53;65.80;100280.87;7724257;32;40420;-77
2022/11/02 02:10:56;;;;;;;23.00;12.65;;;;;;;13.44;66.02;100286.09;7736097;32;38773;-77
2022/11/02 02:15:13;;;;;;;25.23;11.90;;;;;;;13.53;65.90;100270.72;7739663;32;37169;-76
2022/11/02 02:19:35;;;;;;;23.67;12.60;;;;;;;13.81;64.63;100268.41;7739568;32;40303;-76
2022/11/02 02:24:22;;;;;;;24.12;12.43;;;;;;;13.90;64.37;100271.37;7739593;32;39934;-77
2022/11/02 02:29:13;;;;;;;20.75;11.98;;;;;;;13.81;64.78;100268.41;7739346;32;38221;-77
2022/11/02 02:33:42;;;;;;;23.73;11.75;;;;;;;13.78;64.82;100271.72;7737256;32;37897;-76
2022/11/02 02:38:05;;;;;;;25.77;11.95;;;;;;;13.74;64.99;100276.12;7710935;32;39335;-77
2022/11/02 02:42:30;;;;;;;21.23;12.13;;;;;;;13.75;64.80;100276.94;7711354;32;40561;-77
2022/11/02 02:46:58;;;;;;;20.70;11.93;;;;;;;13.87;64.37;100275.50;7711202;32;38779;-78
2022/11/02 02:51:36;;;;;;;21.15;10.93;;;;;;;13.98;64.04;100286.41;7711254;32;37407;-78
2022/11/02 02:55:52;;;;;;;23.45;11.63;;;;;;;13.88;64.28;100292.75;7712108;32;38922;-77
2022/11/02 03:00:15;;;;;;;23.38;12.75;;;;;;;13.60;65.41;100306.03;7724695;32;40044;-76
2022/11/02 03:04:31;;;;;;;23.75;11.63;;;;;;;13.85;64.64;100312.53;7739073;32;37841;-77
2022/11/02 03:09:09;;;;;;;23.27;11.85;;;;;;;13.43;66.10;100320.06;7739403;32;36361;-76
2022/11/02 03:13:37;;;;;;;26.35;13.80;;;;;;;13.47;66.38;100343.06;7725187;32;39556;-77
2022/11/02 03:18:27;;;;;;;27.80;13.57;;;;;;;13.47;66.11;100351.28;7738850;32;40849;-76
2022/11/02 03:23:05;;;;;;;27.62;14.85;;;;;;;13.07;67.90;100365.81;7737990;32;37692;-77
2022/11/02 03:28:00;;;;;;;28.50;15.77;;;;;;;12.70;69.90;100369.63;7726639;32;38064;-76
2022/11/02 03:32:35;;;;;;;27.00;14.23;;;;;;;12.64;70.48;100363.34;7710897;32;39454;-76
2022/11/02 03:37:22;;;;;;;32.80;15.90;;;;;;;12.26;72.13;100373.63;7730607;32;40732;-79
2022/11/02 03:41:41;;;;;;;27.50;14.70;;;;;;;12.34;72.16;100367.62;7735867;32;38041;-76
2022/11/02 03:45:59;;;;;;;32.53;15.73;;;;;;;12.79;70.35;100362.50;7731710;32;37958;-78
2022/11/02 03:50:20;;;;;;;31.98;16.50;;;;;;;12.02;73.14;100371.38;7698237;32;39210;-78
2022/11/02 03:54:50;;;;;;;28.35;15.55;;;;;;;12.55;71.65;100370.41;7711346;32;40898;-76
2022/11/02 03:59:07;;;;;;;33.90;15.80;;;;;;;12.42;71.94;100360.00;7711883;32;37913;-79
2022/11/02 04:03:23;;;;;;;34.85;15.65;;;;;;;12.19;72.96;100384.00;7711621;32;37270;-78
2022/11/02 04:19:26;;;;;;;30.92;16.02;;;;;;;12.26;72.57;100384.56;7715164;32;38034;-78
2022/11/02 04:21:29;;;;;;;34.42;17.77;;;;;;;12.53;71.63;100378.06;7730255;32;37409;-79
2022/11/02 04:25:45;;;;;;;34.35;16.60;;;;;;;12.80;70.62;100379.75;7711419;32;39131;-77
2022/11/02 04:30:01;;;;;;;32.70;17.65;;;;;;;12.58;71.41;100383.56;7711431;32;40654;-79
2022/11/02 04:34:18;;;;;;;27.15;15.43;;;;;;;12.90;70.34;100382.50;7711110;32;38898;-79
2022/11/02 04:38:40;;;;;;;32.35;17.20;;;;;;;13.03;69.50;100381.94;7710948;32;38025;-79
2022/11/02 04:42:56;;;;;;;30.77;16.37;;;;;;;13.23;68.80;100380.28;7711344;32;39345;-79
2022/11/02 04:47:12;;;;;;;32.85;17.00;;;;;;;13.34;68.43;100384.72;7711063;32;39902;-77
2022/11/02 04:51:29;;;;;;;31.20;16.92;;;;;;;13.19;69.12;100382.75;7710978;32;38097;-78
2022/11/02 04:55:46;;;;;;;33.53;16.40;;;;;;;12.97;69.78;100385.81;7710983;32;37888;-77
2022/11/02 05:00:03;;;;;;;33.65;17.33;;;;;;;12.78;70.26;100397.28;7710874;32;39266;-77
2022/11/02 05:04:20;;;;;;;38.17;18.35;;;;;;;12.37;72.20;100407.31;7710847;32;40835;-79
2022/11/02 05:08:36;;;;;;;37.78;18.50;;;;;;;12.09;73.91;100411.28;7710672;32;38105;-77
2022/11/02 05:12:59;;;;;;;34.85;17.77;;;;;;;12.75;71.54;100408.75;7709577;32;37063;-78
2022/11/02 05:17:15;;;;;;;;;;;;;;;12.78;71.34;100408.22;7709803;32;39925;-77
2022/11/02 05:21:32;;;;;;;34.28;18.48;;;;;;;12.52;72.65;100417.44;7710971;32;40252;-77
2022/11/02 05:25:59;;;;;;;36.65;18.80;;;;;;;12.28;73.37;100412.47;7709092;32;38048;-76
2022/11/02 05:30:15;;;;;;;36.63;19.00;;;;;;;12.32;73.37;100416.31;7710431;32;36120;-78
2022/11/02 05:34:31;;;;;;;32.22;18.52;;;;;;;12.52;72.84;100409.25;7710284;32;39935;-79
2022/11/02 05:38:51;;;;;;;35.92;18.42;;;;;;;12.84;71.78;100422.72;7709978;32;39732;-78
2022/11/02 05:43:08;;;;;;;36.50;18.85;;;;;;;12.98;71.39;100428.47;7709989;32;38765;-79
2022/11/02 05:47:24;;;;;;;31.95;17.20;;;;;;;12.75;71.92;100429.81;7711135;32;38154;-76
2022/11/02 05:51:42;;;;;;;31.10;18.62;;;;;;;13.04;70.86;100432.03;7713188;32;40079;-76
2022/11/02 05:56:00;;;;;;;39.30;18.80;;;;;;;13.26;70.23;100426.28;7713157;32;40873;-76
2022/11/02 06:00:16;;;;;;;37.30;17.85;;;;;;;13.46;69.56;100426.31;7713118;32;37839;-76
2022/11/02 06:04:32;;;;;;;33.30;18.23;;;;;;;13.49;69.37;100417.56;7713046;32;37896;-76
2022/11/02 06:08:48;;;;;;;37.67;18.42;;;;;;;13.64;68.76;100418.62;7712893;32;39495;-79
2022/11/02 06:13:05;;;;;;;36.85;18.20;;;;;;;13.67;68.71;100426.28;7712922;32;40951;-77
2022/11/02 06:17:21;;;;;;;33.13;16.90;;;;;;;13.71;68.54;100430.94;7712860;32;37843;-77
2022/11/02 06:21:37;;;;;;;31.85;17.33;;;;;;;13.74;68.55;100424.09;7712956;32;36911;-77
2022/11/02 06:25:59;;;;;;;30.33;16.55;;;;;;;13.96;67.70;100415.53;7712738;32;39926;-77
2022/11/02 06:30:15;;;;;;;31.90;16.75;;;;;;;14.05;67.37;100421.25;7711521;32;40736;-77
2022/11/02 06:34:31;;;;;;;33.50;18.17;;;;;;;13.76;68.45;100432.84;7712664;32;38414;-77
2022/11/02 06:38:48;;;;;;;31.48;16.98;;;;;;;13.84;68.09;100429.53;7712554;32;38040;-74
2022/11/02 06:43:04;;;;;;;35.42;18.37;;;;;;;14.05;68.96;100434.97;7712601;32;40041;-74
2022/11/02 06:47:37;;;;;;;28.50;16.60;;;;;;;14.04;68.69;100433.34;7712349;32;39892;-74
2022/11/02 06:51:53;;;;;;;30.42;17.65;;;;;;;14.35;67.88;100434.03;7712472;32;38717;-77
2022/11/02 06:56:11;;;;;;;35.47;18.55;;;;;;;14.43;67.50;100438.09;7712443;32;37011;-78
2022/11/02 07:00:28;;;;;;;30.15;16.60;;;;;;;14.50;66.55;100433.13;7711453;32;40243;-71
2022/11/02 07:04:45;;;;;;;31.15;17.52;;;;;;;14.43;66.76;100435.34;7712270;32;40964;-80
2022/11/02 07:09:01;;;;;;;33.10;19.23;;;;;;;14.68;66.36;100437.19;7712022;32;37761;-76
2022/11/02 07:13:17;;;;;;;39.08;20.23;;;;;;;14.79;65.88;100426.97;7712228;32;38148;-76
2022/11/02 07:17:37;;;;;;;33.42;19.05;;;;;;;14.60;65.83;100433.09;7712241;32;40158;-77
2022/11/02 07:21:53;;;;;;;38.08;19.67;;;;;;;14.85;65.45;100431.31;7712179;32;39620;-77
2022/11/02 07:26:10;;;;;;;29.55;17.42;;;;;;;14.57;65.89;100436.41;7712062;32;37812;-76
2022/11/02 07:30:27;;;;;;;36.33;18.37;;;;;;;13.55;69.54;100442.19;7712012;32;37136;-76
2022/11/02 07:34:44;;;;;;;32.67;17.92;;;;;;;13.22;70.66;100450.66;7712053;32;39235;-76
2022/11/02 07:39:00;;;;;;;31.77;18.50;;;;;;;13.78;69.42;100447.09;7711775;32;40222;-77
2022/11/02 07:43:16;;;;;;;37.55;19.02;;;;;;;14.22;68.47;100449.16;7711820;32;38128;-77
2022/11/02 07:47:33;;;;;;;38.53;19.77;;;;;;;14.01;69.74;100448.41;7711722;32;37135;-76
2022/11/02 07:51:49;;;;;;;35.00;17.25;;;;;;;14.44;67.87;100443.31;7711543;32;40123;-76
2022/11/02 07:56:06;;;;;;;29.08;17.30;;;;;;;14.05;68.92;100457.72;7711558;32;39607;-77
2022/11/02 08:00:23;;;;;;;36.28;18.70;;;;;;;14.10;68.77;100459.62;7710438;32;38010;-76
2022/11/02 08:04:39;;;;;;;36.92;19.40;;;;;;;14.11;68.79;100458.53;7711680;32;36970;-76
2022/11/02 08:09:01;;;;;;;32.03;18.58;;;;;;;14.02;68.98;100451.97;7711159;32;39145;-77
2022/11/02 08:13:20;;;;;;;34.15;19.33;;;;;;;14.29;67.90;100448.84;7711411;32;39768;-76
2022/11/02 08:17:36;;;;;;;39.65;18.12;;;;;;;14.44;67.20;100437.81;7711488;32;38015;-77
2022/11/02 08:21:54;;;;;;;36.58;18.50;;;;;;;14.01;69.13;100442.94;7711488;32;37970;-78
2022/11/02 08:26:11;;;;;;;33.67;17.83;;;;;;;14.38;69.08;100443.59;7711604;32;38429;-77
2022/11/02 08:30:28;;;;;;;30.23;17.12;;;;;;;14.57;67.95;100441.88;7710957;32;40833;-77
2022/11/02 08:34:45;;;;;;;30.48;17.15;;;;;;;14.61;66.58;100437.50;7711145;32;38865;-78
2022/11/02 08:39:01;;;;;;;27.00;15.77;;;;;;;14.77;65.66;100434.66;7710997;32;38228;-78
2022/11/02 08:43:17;;;;;;;33.15;17.15;;;;;;;14.98;65.18;100438.91;7711197;32;39364;-78
2022/11/02 08:47:38;;;;;;;28.70;16.73;;;;;;;14.97;64.88;100434.53;7711004;32;40774;-78
2022/11/02 08:51:55;;;;;;;30.73;17.62;;;;;;;14.71;65.68;100430.28;7710983;32;38119;-78
2022/11/02 08:56:11;;;;;;;30.50;16.60;;;;;;;15.07;64.99;100432.81;7711013;32;38066;-78
2022/11/02 09:00:29;;;;;;;31.08;17.73;;;;;;;14.80;64.77;100434.09;7710820;32;40491;-78
2022/11/02 09:04:45;;;;;;;27.75;16.33;;;;;;;15.07;65.05;100439.09;7710915;32;39066;-76
2022/11/02 09:09:02;;;;;;;29.65;16.15;;;;;;;15.20;64.19;100432.97;7710686;32;38127;-75
2022/11/02 09:13:23;;;;;;;29.35;17.20;;;;;;;15.22;64.73;100424.44;7711065;32;37958;-78
2022/11/02 09:17:41;;;;;;;33.00;17.17;;;;;;;14.95;65.40;100433.16;7710592;32;40182;-78
2022/11/02 09:21:57;;;;;;;33.22;18.23;;;;;;;15.27;64.68;100448.31;7709379;32;40076;-78
2022/11/02 09:26:17;;;;;;;31.02;18.65;;;;;;;14.96;65.77;100443.06;7703253;32;231828;-77
2022/11/02 09:30:33;;;;;;;29.25;17.23;;;;;;;15.09;65.53;100441.56;7710412;32;37970;-77
2022/11/02 09:34:51;;;;;;;33.50;18.02;;;;;;;15.19;65.48;100438.75;7710228;32;39141;-78
2022/11/02 09:39:07;;;;;;;29.20;17.23;;;;;;;15.75;63.64;100435.53;7709953;32;40181;-78
2022/11/02 09:43:45;;;;;;;28.40;17.20;;;;;;;15.76;63.29;100439.94;7710055;32;38659;-79
2022/11/02 09:48:09;;;;;;;32.05;17.08;;;;;;;15.64;62.92;100446.87;7709904;32;37164;-74
2022/11/02 09:52:43;;;;;;;30.70;17.23;;;;;;;15.88;62.96;100436.75;7709844;32;39915;-77
2022/11/02 09:57:23;;;;;;;29.48;16.92;;;;;;;16.54;61.38;100442.59;7708648;32;40825;-79
2022/11/02 10:01:58;;;;;;;30.08;16.05;;;;;;;17.19;58.30;100428.13;7709651;32;38635;-76
2022/11/02 10:06:20;;;;;;;29.80;15.38;;;;;;;16.74;59.68;100435.97;7709696;32;37426;-75
2022/11/02 10:10:37;;;;;;;28.45;16.15;;;;;;;16.32;60.45;100437.63;7709419;32;39200;-75
2022/11/02 10:15:20;;;;;;;31.65;15.40;;;;;;;16.55;59.79;100433.19;7708134;32;40040;-75
2022/11/02 10:19:39;;;;;;;28.43;15.87;;;;;;;16.26;60.86;100441.56;7708153;32;38902;-74
2022/11/02 10:23:57;;;;;;;30.48;16.20;;;;;;;17.54;58.00;100431.41;7707944;32;37003;-76
2022/11/02 10:28:25;;;;;;;28.62;15.52;;;;;;;17.17;59.51;100427.63;7708991;32;38417;-79
2022/11/02 10:32:43;;;;;;;27.10;15.73;;;;;;;18.12;56.71;100424.53;7709869;32;39731;-79
2022/11/02 10:37:19;;;;;;;28.95;16.15;;;;;;;18.28;55.30;100427.84;7712594;32;36987;-80
2022/11/02 10:41:48;;;;;;;25.30;16.73;;;;;;;17.44;57.38;100426.09;7711533;32;37126;-80
2022/11/02 10:46:13;;;;;;;29.33;15.88;;;;;;;18.01;56.85;100423.13;7712682;32;39327;-79
2022/11/02 10:50:48;;;;;;;30.17;15.85;;;;;;;18.50;55.10;100423.50;7712410;32;40725;-79
2022/11/02 10:55:08;;;;;;;25.30;15.55;;;;;;;17.62;58.20;100427.94;7712397;32;38848;-78
2022/11/02 10:59:24;;;;;;;30.20;15.00;;;;;;;17.75;57.84;100418.06;7712357;32;38029;-78
2022/11/02 11:03:54;;;;;;;26.70;15.68;;;;;;;18.57;55.07;100416.44;7711829;32;40156;-79
2022/11/02 11:08:43;;;;;;;22.67;14.43;;;;;;;18.35;55.35;100417.19;7712166;32;40776;-79
2022/11/02 11:12:59;;;;;;;29.55;14.55;;;;;;;19.17;53.43;100410.94;7712089;32;38164;-80
2022/11/02 11:17:22;;;;;;;23.00;13.88;;;;;;;20.12;51.95;100410.63;7712226;32;37489;-79
2022/11/02 11:21:59;;;;;;;23.87;13.60;;;;;;;20.75;50.24;100404.91;7710599;32;40551;-77
2022/11/02 11:26:30;;;;;;;23.90;14.65;;;;;;;20.21;51.15;100408.69;7712262;32;39734;-75
2022/11/02 11:30:49;;;;;;;23.62;13.55;;;;;;;20.12;51.68;100405.06;7711885;32;38825;-75
2022/11/02 11:35:21;;;;;;;23.12;13.82;;;;;;;20.72;50.49;100400.00;7711087;32;37529;-75
2022/11/02 11:39:41;;;;;;;21.50;13.32;;;;;;;21.34;48.94;100371.06;7711815;32;39574;-74
2022/11/02 11:43:57;;;;;;;26.42;14.43;;;;;;;21.47;48.02;100353.47;7711268;32;40781;-74
2022/11/02 11:48:36;;;;;;;24.10;13.55;;;;;;;20.77;48.61;100358.28;7711688;32;38129;-74
2022/11/02 11:53:28;;;;;;;21.90;12.73;;;;;;;20.80;49.30;100352.09;7710707;32;37368;-75
2022/11/02 11:57:45;;;;;;;19.55;12.57;;;;;;;21.08;49.65;100344.22;7654461;32;40138;-75
2022/11/02 12:02:17;;;;;;;22.50;11.90;;;;;;;21.98;47.31;100345.22;7711738;32;41203;-75
2022/11/02 12:06:34;;;;;;;20.70;11.98;;;;;;;21.72;46.62;100337.84;7710610;32;37902;-74
2022/11/02 12:10:56;;;;;;;20.50;11.02;;;;;;;22.34;45.15;100334.75;7710411;32;37946;-74
2022/11/02 12:15:37;;;;;;;19.08;10.80;;;;;;;21.78;45.58;100329.31;7711515;32;39349;-74
2022/11/02 12:20:24;;;;;;;17.12;10.45;;;;;;;22.42;44.70;100326.34;7690827;32;39921;-74
2022/11/02 12:24:56;;;;;;;18.55;10.32;;;;;;;22.85;43.02;100319.59;7711445;32;38135;-76
2022/11/02 12:29:28;;;;;;;16.45;10.40;;;;;;;22.85;43.48;100324.31;7711406;32;37174;-75
2022/11/02 12:34:06;;;;;;;16.70;9.10;;;;;;;22.86;43.39;100307.28;7711360;32;39161;-75
2022/11/02 12:38:31;;;;;;;16.87;10.20;;;;;;;22.36;43.61;100299.91;7710504;32;40851;-76
2022/11/02 12:43:06;;;;;;;16.85;10.43;;;;;;;22.38;43.91;100303.16;7711225;32;38245;-76
2022/11/02 12:47:29;;;;;;;15.95;9.48;;;;;;;22.52;44.33;100299.28;7711195;32;37022;-75
2022/11/02 12:52:03;;;;;;;17.87;9.97;;;;;;;22.49;43.72;100298.00;7711235;32;40110;-75
2022/11/02 12:56:43;;;;;;;15.75;9.38;;;;;;;22.27;44.24;100296.38;7710995;32;39988;-75
2022/11/02 13:01:08;;;;;;;17.67;8.88;;;;;;;22.61;42.87;100300.00;7709911;32;38824;-74
2022/11/02 13:05:40;;;;;;;17.05;8.70;;;;;;;21.92;43.72;100299.34;7709852;32;37348;-74
2022/11/02 13:10:06;;;;;;;15.55;8.25;;;;;;;22.33;43.27;100299.78;7710946;32;39045;-75
2022/11/02 13:14:25;;;;;;;16.77;8.02;;;;;;;22.37;42.68;100298.75;7710911;32;39938;-73
2022/11/02 13:18:52;;;;;;;14.02;7.68;;;;;;;22.87;41.91;100297.00;7710722;32;38654;-73
2022/11/02 13:23:17;;;;;;;14.87;7.87;;;;;;;22.29;42.93;100299.62;7709794;32;36253;-74
2022/11/02 13:27:37;;;;;;;15.55;8.05;;;;;;;22.40;43.51;100288.94;7710201;32;40062;-75
2022/11/02 13:32:23;;;;;;;14.18;7.37;;;;;;;22.68;42.54;100291.97;7709287;32;40809;-74
2022/11/02 13:36:45;;;;;;;13.07;7.30;;;;;;;23.43;41.77;100291.00;7709162;32;37962;-73
2022/11/02 13:41:23;;;;;;;16.17;7.80;;;;;;;22.70;43.33;100297.97;7710269;32;37689;-77
2022/11/02 13:45:51;;;;;;;15.48;8.00;;;;;;;22.13;43.78;100296.62;7733247;32;39312;-75
2022/11/02 13:50:11;;;;;;;13.23;7.22;;;;;;;22.88;42.36;100290.28;7723913;32;39902;-73
2022/11/02 13:54:34;;;;;;;9.95;5.70;;;;;;;22.93;42.26;100300.38;7722780;32;38608;-74
2022/11/02 13:58:56;;;;;;;10.60;5.28;;;;;;;22.98;41.22;100303.75;7736567;32;36991;-74
2022/11/02 14:03:28;;;;;;;9.80;4.30;;;;;;;22.84;41.56;100306.81;7723170;32;40075;-74
2022/11/02 14:07:44;;;;;;;8.57;3.28;;;;;;;23.61;37.44;100311.87;7737260;32;39909;-75
2022/11/02 14:12:22;;;;;;;6.75;3.60;;;;;;;23.57;36.44;100312.91;7739773;32;38766;-74
2022/11/02 14:16:48;;;;;;;7.82;3.67;;;;;;;23.88;35.83;100317.12;7739648;32;37942;-74
2022/11/02 14:21:39;;;;;;;7.93;4.07;;;;;;;23.31;37.51;100311.25;7739726;32;39444;-74
2022/11/02 14:25:58;;;;;;;9.85;4.22;;;;;;;23.95;35.57;100317.34;7739369;32;40090;-74
2022/11/02 14:30:44;;;;;;;9.65;3.90;;;;;;;25.11;34.10;100305.56;7725995;32;37978;-75
2022/11/02 14:35:21;;;;;;;6.90;3.05;;;;;;;25.72;32.82;100312.75;7738926;32;37241;-75
2022/11/02 14:39:48;;;;;;;8.50;3.80;;;;;;;25.85;31.96;100303.09;7739361;32;39413;-74
2022/11/02 14:44:23;;;;;;;8.13;3.47;;;;;;;25.10;33.58;100303.97;7734403;32;39960;-73
2022/11/02 14:48:46;;;;;;;8.27;4.00;;;;;;;24.52;34.40;100307.91;7764412;32;37932;-74
2022/11/02 14:53:06;;;;;;;9.40;3.87;;;;;;;23.19;36.78;100320.38;7751910;32;36997;-73
2022/11/02 14:57:35;;;;;;;10.07;3.75;;;;;;;22.59;38.07;100314.25;7752555;32;39422;-72
2022/11/02 15:02:03;;;;;;;6.75;3.12;;;;;;;22.23;39.17;100312.88;7721878;32;47155;-75
2022/11/02 15:06:26;;;;;;;7.53;3.83;;;;;;;21.56;41.17;100317.38;7737331;32;37830;-74
2022/11/02 15:10:44;;;;;;;7.25;3.83;;;;;;;21.37;41.58;100317.72;7737061;32;37140;-74
2022/11/02 15:15:21;;;;;;;10.35;4.80;;;;;;;20.93;43.00;100317.84;7737459;32;39206;-74
2022/11/02 15:19:45;;;;;;;8.25;3.40;;;;;;;20.61;43.19;100321.91;7735983;32;40669;-74
2022/11/02 15:24:25;;;;;;;10.95;4.47;;;;;;;20.17;44.79;100330.19;7738804;32;37929;-74
2022/11/02 15:28:42;;;;;;;12.93;5.12;;;;;;;19.81;46.06;100333.22;7738029;32;37115;-74
2022/11/02 15:33:04;;;;;;;15.68;5.60;;;;;;;19.52;46.72;100340.88;7734162;32;40178;-75
2022/11/02 15:37:30;;;;;;;13.18;5.53;;;;;;;19.54;47.03;100342.50;7730597;32;39780;-73
2022/11/02 15:42:12;;;;;;;12.35;5.18;;;;;;;19.13;48.07;100348.00;7710727;32;38087;-75
2022/11/02 15:46:43;;;;;;;15.50;5.18;;;;;;;18.73;49.30;100355.31;7723397;32;37978;-75
2022/11/02 15:51:44;;;;;;;10.95;4.90;;;;;;;18.87;48.81;100350.59;7716480;32;39010;-77
2022/11/02 15:56:10;;;;;;;9.82;4.68;;;;;;;18.57;49.62;100361.22;7722432;32;39997;-77
2022/11/02 16:00:29;;;;;;;11.02;5.10;;;;;;;18.57;49.42;100365.91;7719536;32;38035;-76
2022/11/02 16:04:49;;;;;;;10.00;5.03;;;;;;;18.47;49.91;100357.84;7726606;32;37975;-76
2022/11/02 16:09:32;;;;;;;12.43;5.70;;;;;;;18.56;49.59;100364.28;7727863;32;39117;-78
2022/11/02 16:13:51;;;;;;;14.13;5.95;;;;;;;18.32;50.61;100367.31;7702170;32;40867;-79
2022/11/02 16:18:28;;;;;;;14.10;6.87;;;;;;;18.46;50.09;100367.28;7722093;32;37734;-77
2022/11/02 16:22:55;;;;;;;12.10;6.07;;;;;;;18.16;50.96;100364.03;7715997;32;36738;-77
2022/11/02 16:27:12;;;;;;;23.23;13.52;;;;;;;18.21;50.96;100374.97;7734084;32;39105;-77
2022/11/02 16:31:31;;;;;;;24.27;16.17;;;;;;;18.00;51.60;100389.19;7721747;32;40840;-76
2022/11/02 16:35:48;;;;;;;19.37;13.88;;;;;;;17.72;52.43;100393.06;7725304;32;38704;-77
2022/11/02 16:40:05;;;;;;;13.15;7.32;;;;;;;17.61;52.89;100392.44;7711961;32;37959;-76
2022/11/02 16:44:33;;;;;;;15.20;7.53;;;;;;;17.56;53.01;100398.84;7730109;32;39002;-78
2022/11/02 16:49:10;;;;;;;15.93;8.50;;;;;;;17.33;53.87;100410.84;7736130;32;40580;-76
2022/11/02 16:53:28;;;;;;;16.83;8.52;;;;;;;17.24;54.53;100411.53;7714424;32;37910;-78
2022/11/02 16:57:45;;;;;;;20.62;9.82;;;;;;;17.33;54.21;100414.41;7709190;32;37161;-76
2022/11/02 17:02:02;;;;;;;18.65;10.02;;;;;;;17.28;54.52;100422.75;7705875;32;39081;-79
2022/11/02 17:06:20;;;;;;;21.62;12.10;;;;;;;17.00;55.21;100416.34;7708483;32;40020;-79
2022/11/02 17:10:37;;;;;;;17.73;9.00;;;;;;;17.19;54.49;100419.06;7728192;32;38004;-78
2022/11/02 17:14:53;;;;;;;17.12;8.40;;;;;;;16.97;55.09;100422.44;7736423;32;36721;-78
2022/11/02 17:19:38;;;;;;;14.13;7.68;;;;;;;16.93;54.93;100430.47;7736929;32;39912;-78
2022/11/02 17:23:56;;;;;;;15.25;8.40;;;;;;;16.44;56.74;100427.03;7737126;32;40054;-77
2022/11/02 17:28:44;;;;;;;13.93;8.35;;;;;;;16.64;56.46;100436.94;7735482;32;37996;-80
2022/11/02 17:33:27;;;;;;;19.02;8.98;;;;;;;16.47;56.80;100439.34;7736810;32;38212;-78
2022/11/02 17:37:43;;;;;;;18.73;10.80;;;;;;;16.83;55.75;100431.44;7736972;32;39263;-78
2022/11/02 17:46:34;;;;;;;20.45;11.07;;;;;;;16.74;56.10;100441.47;7736999;32;39152;-81
2022/11/02 17:50:53;;;;;;;24.45;11.45;;;;;;;16.85;55.67;100445.75;7734825;32;38157;-76
2022/11/02 17:55:25;;;;;;;18.02;9.32;;;;;;;16.49;57.21;100445.41;7736007;32;39979;-79
2022/11/02 17:59:41;;;;;;;16.05;9.40;;;;;;;16.44;57.26;100450.97;7728568;32;39832;-79
2022/11/02 18:03:57;;;;;;;18.40;10.18;;;;;;;16.40;57.40;100445.25;7735931;32;37864;-80
2022/11/02 18:08:13;;;;;;;25.33;10.38;;;;;;;16.53;56.74;100447.25;7736039;32;37122;-80
2022/11/02 18:12:30;;;;;;;22.87;11.25;;;;;;;16.31;57.29;100447.00;7729063;32;40199;-79
2022/11/02 18:16:47;;;;;;;22.33;10.57;;;;;;;16.29;57.24;100457.47;7733638;32;39868;-78
2022/11/02 18:21:03;;;;;;;17.20;9.52;;;;;;;16.13;57.65;100454.91;7735091;32;37990;-78
2022/11/02 18:25:20;;;;;;;16.25;8.82;;;;;;;16.32;57.02;100452.22;7735300;32;37101;-78
2022/11/02 18:29:41;;;;;;;19.33;9.18;;;;;;;16.11;57.13;100456.34;7735491;32;40107;-77
2022/11/02 18:33:57;;;;;;;16.83;8.55;;;;;;;15.86;57.56;100455.47;7725629;32;40715;-79
2022/11/02 18:38:14;;;;;;;13.52;8.40;;;;;;;15.92;57.18;100461.75;7713633;32;37744;-76
2022/11/02 18:42:30;;;;;;;15.35;8.52;;;;;;;15.77;57.31;100458.03;7732483;32;37814;-77
2022/11/02 18:46:46;;;;;;;16.25;8.75;;;;;;;15.76;57.23;100452.84;7724154;32;39289;-77
2022/11/02 18:51:03;;;;;;;15.95;8.35;;;;;;;15.93;56.53;100457.87;7723064;32;39978;-77
2022/11/02 18:55:19;;;;;;;16.58;9.50;;;;;;;15.94;56.42;100462.28;7733800;32;37749;-76
2022/11/02 18:59:36;;;;;;;18.35;9.90;;;;;;;15.96;56.38;100466.38;7728679;32;37513;-77
2022/11/02 19:03:55;;;;;;;19.87;10.10;;;;;;;15.96;56.70;100471.06;7712429;32;40121;-79
2022/11/02 19:12:45;;;;;;;20.10;10.63;;;;;;;15.61;58.16;100469.44;7730125;32;37694;-77
2022/11/02 19:17:02;;;;;;;20.92;11.00;;;;;;;15.52;58.29;100466.50;7711789;32;36916;-75
2022/11/02 19:21:20;;;;;;;16.40;9.50;;;;;;;15.71;57.46;100461.94;7737258;32;40292;-77
2022/11/02 19:25:39;;;;;;;17.35;9.13;;;;;;;15.72;57.38;100466.31;7738509;32;41152;-77
2022/11/02 19:29:55;;;;;;;18.23;10.45;;;;;;;15.45;58.15;100477.00;7737366;32;37792;-77
2022/11/02 19:34:12;;;;;;;16.87;10.10;;;;;;;15.75;57.13;100470.44;7738632;32;37746;-79
2022/11/02 19:38:34;;;;;;;17.12;9.48;;;;;;;15.98;56.32;100473.53;7713376;32;40133;-78
2022/11/02 19:42:51;;;;;;;18.25;9.70;;;;;;;15.57;57.32;100471.94;7710585;32;39752;-79
2022/11/02 19:47:07;;;;;;;16.30;9.18;;;;;;;15.01;59.08;100462.22;7724757;32;38632;-78
2022/11/02 19:51:27;;;;;;;18.37;9.82;;;;;;;15.45;57.69;100471.50;7711663;32;37951;-74
2022/11/02 19:55:53;;;;;;;16.77;9.55;;;;;;;15.45;57.62;100479.75;7718022;32;39504;-81
2022/11/02 20:00:11;;;;;;;16.23;9.05;;;;;;;15.44;57.69;100470.69;7721019;32;39692;-79
2022/11/02 20:04:27;;;;;;;17.77;9.80;;;;;;;15.49;57.29;100467.09;7710945;32;37921;-78
2022/11/02 20:08:43;;;;;;;16.15;9.02;;;;;;;15.54;56.97;100478.03;7714965;32;37853;-79
2022/11/02 20:13:00;;;;;;;20.67;10.13;;;;;;;15.39;57.15;100482.53;7729758;32;40039;-76
2022/11/02 20:17:17;;;;;;;17.70;9.25;;;;;;;15.42;57.18;100483.06;7712585;32;38504;-77